Time;durP1;ratioP1;P1;durP2;ratioP2;P2;SDS_P1;SDS_P2;PMS_P1;PMS_P2;Temp;Humidity;BMP_temperature;BMP_pressure;BME280_temperature;BME280_humidity;BME280_pressure;Samples;Min_cycle;Max_cycle;Signal;HPM_P1;HPM_P2
2022/10/29 00:02:18;;;;;;;;;;;10.90;99.90;;;;;;5071119;28;19927;-86
2022/10/29 00:04:43;;;;;;;;;;;11.00;99.90;;;;;;5067309;28;20019;-85
2022/10/29 00:07:09;;;;;;;;;;;10.90;99.90;;;;;;5079523;28;19928;-86
2022/10/29 00:09:34;;;;;;;;;;;11.00;99.90;;;;;;5077132;28;20563;-86
2022/10/29 00:12:00;;;;;;;;;;;10.90;99.90;;;;;;5068971;28;19978;-86
2022/10/29 00:14:26;;;;;;;;;;;11.10;99.90;;;;;;5068971;28;19952;-86
2022/10/29 00:16:51;;;;;;;;;;;11.10;99.90;;;;;;5072404;28;19978;-86
2022/10/29 00:19:17;;;;;;;;;;;11.10;99.90;;;;;;5056001;28;20360;-86
2022/10/29 00:21:42;;;;;;;;;;;11.00;99.90;;;;;;5074881;28;19920;-86
2022/10/29 00:24:08;;;;;;;;;;;10.90;99.90;;;;;;5074655;28;20414;-86
2022/10/29 00:26:34;;;;;;;;;;;10.90;99.90;;;;;;5069586;28;20338;-86
2022/10/29 00:28:59;;;;;;;;;;;10.90;99.90;;;;;;5082294;28;20375;-86
2022/10/29 00:31:25;;;;;;;;;;;10.90;99.90;;;;;;5089715;28;19928;-86
2022/10/29 00:33:54;;;;;;;;;;;10.90;99.90;;;;;;5072451;28;19916;-86
2022/10/29 00:36:24;;;;;;;;;;;10.90;99.90;;;;;;5076102;28;19912;-85
2022/10/29 00:38:49;;;;;;;;;;;10.90;99.90;;;;;;5086988;28;19998;-86
2022/10/29 00:41:22;;;;;;;;;;;10.80;99.90;;;;;;5078634;28;20041;-86
2022/10/29 00:43:49;;;;;;;;;;;10.90;99.90;;;;;;5075818;28;20446;-86
2022/10/29 00:46:16;;;;;;;;;;;10.90;99.90;;;;;;5085047;28;20375;-86
2022/10/29 00:48:44;;;;;;;;;;;11.00;99.90;;;;;;5065806;28;19927;-86
2022/10/29 00:51:11;;;;;;;;;;;11.00;99.90;;;;;;5072017;28;19970;-86
2022/10/29 00:53:38;;;;;;;;;;;11.00;99.90;;;;;;5084815;28;19913;-86
2022/10/29 00:56:04;;;;;;;;;;;10.90;99.90;;;;;;5083884;28;19966;-86
2022/10/29 00:58:30;;;;;;;;;;;10.90;99.90;;;;;;5069951;28;20555;-86
2022/10/29 01:00:55;;;;;;;;;;;10.80;99.90;;;;;;5076839;28;20023;-86
2022/10/29 01:03:21;;;;;;;;;;;10.80;99.90;;;;;;5078343;28;20349;-86
2022/10/29 01:05:47;;;;;;;;;;;10.90;99.90;;;;;;5074741;28;20342;-86
2022/10/29 01:08:13;;;;;;;;;;;11.00;99.90;;;;;;5077833;28;19970;-87
2022/10/29 01:10:41;;;;;;;;;;;11.20;99.90;;;;;;5080430;28;19916;-86
2022/10/29 01:13:26;;;;;;;;;;;11.20;99.90;;;;;;5073032;28;20538;-86
2022/10/29 01:15:57;;;;;;;;;;;11.20;99.90;;;;;;5081664;28;19908;-86
2022/10/29 01:18:27;;;;;;;;;;;11.30;99.90;;;;;;5080015;28;19916;-86
2022/10/29 01:21:14;;;;;;;;;;;11.40;99.90;;;;;;5073781;28;19916;-86
2022/10/29 01:23:39;;;;;;;;;;;11.50;99.90;;;;;;5080793;28;20385;-86
2022/10/29 01:26:24;;;;;;;;;;;11.50;99.90;;;;;;5077739;28;19946;-86
2022/10/29 01:28:52;;;;;;;;;;;11.50;99.90;;;;;;5077029;28;19966;-86
2022/10/29 01:31:21;;;;;;;;;;;11.40;99.90;;;;;;5080716;28;19920;-85
2022/10/29 01:34:11;;;;;;;;;;;11.40;99.90;;;;;;5076774;28;20007;-86
2022/10/29 01:36:55;;;;;;;;;;;11.50;99.90;;;;;;5075396;28;19985;-86
2022/10/29 01:39:36;;;;;;;;;;;11.50;99.90;;;;;;5076277;28;19916;-85
2022/10/29 01:42:09;;;;;;;;;;;11.70;99.90;;;;;;5068337;28;19920;-86
2022/10/29 01:44:45;;;;;;;;;;;11.70;99.90;;;;;;5072940;28;19925;-86
2022/10/29 01:47:13;;;;;;;;;;;11.60;99.90;;;;;;5081684;28;20383;-86
2022/10/29 01:49:41;;;;;;;;;;;11.60;99.90;;;;;;5065994;28;19916;-86
2022/10/29 01:52:08;;;;;;;;;;;11.60;99.90;;;;;;5082617;28;20558;-86
2022/10/29 01:54:38;;;;;;;;;;;11.60;99.90;;;;;;5081841;28;20577;-86
2022/10/29 01:57:23;;;;;;;;;;;11.50;99.90;;;;;;5075471;28;19923;-86
2022/10/29 01:59:48;;;;;;;;;;;11.50;99.90;;;;;;5072379;28;19916;-86
2022/10/29 02:02:16;;;;;;;;;;;11.50;99.90;;;;;;5064957;28;19920;-86
2022/10/29 02:04:42;;;;;;;;;;;11.60;99.90;;;;;;5080167;28;20031;-86
2022/10/29 02:07:26;;;;;;;;;;;11.70;99.90;;;;;;5081965;28;20018;-86
2022/10/29 02:09:52;;;;;;;;;;;11.70;99.90;;;;;;5072315;28;19938;-85
2022/10/29 02:12:29;;;;;;;;;;;11.70;99.90;;;;;;5073819;28;19912;-85
2022/10/29 02:15:03;;;;;;;;;;;11.80;99.90;;;;;;5083952;28;19920;-86
2022/10/29 02:17:32;;;;;;;;;;;11.90;99.90;;;;;;5078269;28;19912;-86
2022/10/29 02:19:57;;;;;;;;;;;12.00;99.90;;;;;;5074790;28;19935;-86
2022/10/29 02:22:23;;;;;;;;;;;12.00;99.90;;;;;;5084298;28;20489;-85
2022/10/29 02:24:49;;;;;;;;;;;12.10;99.90;;;;;;5101293;28;20343;-86
2022/10/29 02:27:14;;;;;;;;;;;12.10;99.90;;;;;;5078350;28;20235;-87
2022/10/29 02:29:40;;;;;;;;;;;12.10;99.90;;;;;;5095968;28;19912;-86
2022/10/29 02:32:05;;;;;;;;;;;12.10;99.90;;;;;;5068688;28;19929;-85
2022/10/29 02:34:31;;;;;;;;;;;12.20;99.90;;;;;;5061568;28;20338;-86
2022/10/29 02:36:56;;;;;;;;;;;12.20;99.90;;;;;;5073758;28;19944;-85
2022/10/29 02:39:22;;;;;;;;;;;12.20;99.90;;;;;;5083561;28;19913;-86
2022/10/29 02:41:47;;;;;;;;;;;12.20;99.80;;;;;;5060350;28;19970;-85
2022/10/29 02:44:12;;;;;;;;;;;12.20;99.80;;;;;;5078242;28;19924;-87
2022/10/29 02:46:39;;;;;;;;;;;12.30;99.60;;;;;;5058171;28;20330;-86
2022/10/29 02:49:05;;;;;;;;;;;12.30;99.40;;;;;;5067447;28;19966;-86
2022/10/29 02:51:30;;;;;;;;;;;12.30;99.30;;;;;;5072511;28;19916;-86
2022/10/29 02:53:56;;;;;;;;;;;12.40;98.70;;;;;;5057756;28;19916;-87
2022/10/29 02:56:21;;;;;;;;;;;12.30;98.90;;;;;;5091537;28;20437;-85
2022/10/29 02:58:47;;;;;;;;;;;12.40;98.70;;;;;;5080106;28;19912;-86
2022/10/29 03:01:12;;;;;;;;;;;12.40;98.60;;;;;;5078384;28;19917;-86
2022/10/29 03:03:38;;;;;;;;;;;12.40;98.70;;;;;;5066808;28;20364;-86
2022/10/29 03:06:03;;;;;;;;;;;12.40;98.40;;;;;;5056231;28;19920;-86
2022/10/29 03:08:29;;;;;;;;;;;12.50;98.30;;;;;;5071658;28;19970;-86
2022/10/29 03:10:54;;;;;;;;;;;12.40;98.40;;;;;;5075373;28;19922;-86
2022/10/29 03:13:20;;;;;;;;;;;12.50;98.20;;;;;;5060485;28;19916;-86
2022/10/29 03:15:45;;;;;;;;;;;12.50;98.00;;;;;;5079098;28;20389;-85
2022/10/29 03:18:11;;;;;;;;;;;12.50;97.90;;;;;;5076932;28;20370;-85
2022/10/29 03:20:36;;;;;;;;;;;12.50;97.80;;;;;;5069594;28;19927;-86
2022/10/29 03:23:02;;;;;;;;;;;12.50;97.80;;;;;;5084799;28;20274;-86
2022/10/29 03:25:27;;;;;;;;;;;12.50;97.80;;;;;;5075201;28;19920;-86
2022/10/29 03:27:53;;;;;;;;;;;12.50;97.70;;;;;;5070735;28;20292;-86
2022/10/29 03:30:18;;;;;;;;;;;12.40;97.90;;;;;;5082510;28;20422;-85
2022/10/29 03:32:45;;;;;;;;;;;12.40;97.90;;;;;;5075549;28;19999;-85
2022/10/29 03:35:12;;;;;;;;;;;12.40;97.90;;;;;;5067349;28;19921;-85
2022/10/29 03:37:37;;;;;;;;;;;12.40;97.80;;;;;;5076014;28;19916;-86
2022/10/29 03:40:03;;;;;;;;;;;12.40;97.60;;;;;;5059106;28;19927;-86
2022/10/29 03:42:32;;;;;;;;;;;12.40;97.50;;;;;;5072611;28;19999;-87
2022/10/29 03:45:00;;;;;;;;;;;12.40;97.30;;;;;;5084259;28;19935;-85
2022/10/29 03:47:26;;;;;;;;;;;12.40;97.00;;;;;;5072049;28;19930;-86
2022/10/29 03:49:52;;;;;;;;;;;12.50;96.90;;;;;;5073393;28;19912;-86
2022/10/29 03:52:17;;;;;;;;;;;12.50;96.90;;;;;;5071666;28;19938;-85
2022/10/29 03:54:43;;;;;;;;;;;12.40;97.00;;;;;;5072883;28;19934;-85
2022/10/29 03:57:08;;;;;;;;;;;12.50;96.80;;;;;;5074222;28;20013;-86
2022/10/29 03:59:34;;;;;;;;;;;12.40;97.00;;;;;;5079990;28;19931;-85
2022/10/29 04:01:59;;;;;;;;;;;12.50;96.90;;;;;;5054348;28;19920;-85
2022/10/29 04:04:25;;;;;;;;;;;12.30;97.20;;;;;;5052529;28;19983;-85
2022/10/29 04:06:50;;;;;;;;;;;12.30;96.90;;;;;;5079978;28;19924;-86
2022/10/29 04:09:16;;;;;;;;;;;12.40;96.70;;;;;;5085684;28;20024;-85
2022/10/29 04:11:41;;;;;;;;;;;12.40;96.50;;;;;;5077016;28;20393;-85
2022/10/29 04:14:07;;;;;;;;;;;12.40;96.70;;;;;;5075591;28;19921;-86
2022/10/29 04:16:32;;;;;;;;;;;12.40;96.50;;;;;;5076504;28;20390;-85
2022/10/29 04:18:58;;;;;;;;;;;12.30;96.80;;;;;;5083768;28;19950;-85
2022/10/29 04:21:23;;;;;;;;;;;12.20;97.00;;;;;;5078697;28;19999;-87
2022/10/29 04:23:49;;;;;;;;;;;12.20;97.10;;;;;;5078010;28;19967;-85
2022/10/29 04:26:15;;;;;;;;;;;12.20;97.00;;;;;;5069388;28;19913;-86
2022/10/29 04:28:40;;;;;;;;;;;12.20;96.80;;;;;;5077933;28;19924;-85
2022/10/29 04:31:06;;;;;;;;;;;12.30;96.40;;;;;;5060499;28;19927;-84
2022/10/29 04:33:32;;;;;;;;;;;12.30;96.40;;;;;;5073171;28;20005;-86
2022/10/29 04:35:58;;;;;;;;;;;12.30;96.10;;;;;;5075164;28;20557;-86
2022/10/29 04:38:23;;;;;;;;;;;12.20;96.30;;;;;;5070191;28;19909;-86
2022/10/29 04:40:49;;;;;;;;;;;12.10;96.40;;;;;;5064635;28;19913;-86
2022/10/29 04:43:15;;;;;;;;;;;12.10;96.40;;;;;;5072298;28;19958;-77
2022/10/29 04:45:40;;;;;;;;;;;12.10;96.50;;;;;;5070649;28;19920;-79
2022/10/29 04:48:06;;;;;;;;;;;12.00;96.60;;;;;;5076409;28;19919;-90
2022/10/29 04:50:32;;;;;;;;;;;11.90;96.70;;;;;;5070423;28;20411;-85
2022/10/29 04:52:58;;;;;;;;;;;11.90;96.80;;;;;;5064766;28;19913;-90
2022/10/29 04:55:24;;;;;;;;;;;11.90;96.50;;;;;;5062394;28;19974;-85
2022/10/29 04:57:49;;;;;;;;;;;11.90;96.90;;;;;;5064454;28;20390;-85
2022/10/29 05:00:15;;;;;;;;;;;11.80;96.60;;;;;;5078713;28;19916;-85
2022/10/29 05:02:40;;;;;;;;;;;11.80;96.80;;;;;;5070914;28;19934;-86
2022/10/29 05:05:06;;;;;;;;;;;11.80;96.90;;;;;;5067660;28;19920;-85
2022/10/29 05:07:32;;;;;;;;;;;11.70;97.00;;;;;;5081702;28;20433;-85
2022/10/29 05:09:57;;;;;;;;;;;11.70;97.00;;;;;;5069640;28;20610;-85
2022/10/29 05:12:23;;;;;;;;;;;11.60;97.10;;;;;;5067040;28;19923;-85
2022/10/29 05:14:48;;;;;;;;;;;11.70;96.90;;;;;;5082247;28;19924;-84
2022/10/29 05:17:14;;;;;;;;;;;11.80;96.60;;;;;;5077729;28;20380;-85
2022/10/29 05:19:39;;;;;;;;;;;11.80;96.20;;;;;;5078648;28;20015;-86
2022/10/29 05:22:04;;;;;;;;;;;11.80;96.30;;;;;;5079899;28;19920;-85
2022/10/29 05:24:30;;;;;;;;;;;11.80;96.20;;;;;;5073952;28;19927;-87
2022/10/29 05:26:56;;;;;;;;;;;11.70;96.30;;;;;;5073433;28;19927;-85
2022/10/29 05:29:21;;;;;;;;;;;11.70;96.40;;;;;;5070384;28;19990;-86
2022/10/29 05:31:47;;;;;;;;;;;11.70;96.20;;;;;;5082230;28;19920;-86
2022/10/29 05:34:12;;;;;;;;;;;11.70;96.40;;;;;;5074750;28;19920;-85
2022/10/29 05:36:37;;;;;;;;;;;11.60;96.50;;;;;;5076908;28;19917;-86
2022/10/29 05:39:03;;;;;;;;;;;11.60;96.70;;;;;;5082442;28;20291;-86
2022/10/29 05:41:28;;;;;;;;;;;11.60;96.80;;;;;;5073368;28;19927;-83
2022/10/29 05:43:54;;;;;;;;;;;11.60;96.90;;;;;;5070017;28;20066;-84
2022/10/29 05:46:19;;;;;;;;;;;11.70;96.50;;;;;;5076814;28;20376;-84
2022/10/29 05:48:45;;;;;;;;;;;11.60;96.40;;;;;;5076522;28;20394;-84
2022/10/29 05:51:10;;;;;;;;;;;11.60;96.30;;;;;;5078068;28;19920;-85
2022/10/29 05:53:36;;;;;;;;;;;11.70;96.10;;;;;;5072983;28;19962;-84
2022/10/29 05:56:02;;;;;;;;;;;11.60;96.40;;;;;;5059610;28;19962;-84
2022/10/29 05:58:27;;;;;;;;;;;11.60;96.30;;;;;;5076080;28;19959;-84
2022/10/29 06:00:53;;;;;;;;;;;11.50;96.20;;;;;;5079399;28;19920;-89
2022/10/29 06:03:19;;;;;;;;;;;11.50;96.20;;;;;;5060360;28;19917;-92
2022/10/29 06:05:45;;;;;;;;;;;11.50;96.10;;;;;;5079067;28;19978;-89
2022/10/29 06:08:11;;;;;;;;;;;11.60;95.90;;;;;;5082242;28;20375;-89
2022/10/29 06:10:36;;;;;;;;;;;11.50;96.00;;;;;;5087310;28;19912;-89
2022/10/29 06:13:08;;;;;;;;;;;11.50;96.00;;;;;;5058884;28;20003;-89
2022/10/29 06:15:33;;;;;;;;;;;11.50;95.90;;;;;;5079441;28;19973;-90
2022/10/29 06:17:59;;;;;;;;;;;11.40;95.90;;;;;;5076556;28;19920;-91
2022/10/29 06:20:24;;;;;;;;;;;11.40;96.10;;;;;;5059609;28;19924;-91
2022/10/29 06:22:56;;;;;;;;;;;11.30;96.40;;;;;;5060059;28;19917;-90
2022/10/29 06:25:22;;;;;;;;;;;11.30;96.50;;;;;;5070632;28;19922;-90
2022/10/29 06:27:55;;;;;;;;;;;11.40;96.30;;;;;;5074311;28;19979;-91
2022/10/29 06:30:21;;;;;;;;;;;11.30;96.50;;;;;;5077304;28;20257;-91
2022/10/29 06:32:46;;;;;;;;;;;11.40;96.20;;;;;;5081682;28;19919;-90
2022/10/29 06:35:12;;;;;;;;;;;11.40;96.00;;;;;;5077971;28;19927;-91
2022/10/29 06:37:37;;;;;;;;;;;11.40;96.00;;;;;;5086822;28;19917;-90
2022/10/29 06:40:03;;;;;;;;;;;11.50;95.70;;;;;;5085351;28;19982;-91
2022/10/29 06:42:29;;;;;;;;;;;11.50;95.80;;;;;;5080499;28;19974;-90
2022/10/29 06:44:54;;;;;;;;;;;11.50;95.30;;;;;;5085915;28;19924;-90
2022/10/29 06:47:20;;;;;;;;;;;11.50;95.40;;;;;;5066842;28;19931;-90
2022/10/29 06:49:45;;;;;;;;;;;11.50;95.50;;;;;;5079872;28;19927;-91
2022/10/29 06:52:11;;;;;;;;;;;11.60;95.30;;;;;;5055705;28;19917;-89
2022/10/29 06:54:36;;;;;;;;;;;11.70;94.90;;;;;;5061014;28;19920;-89
2022/10/29 06:57:02;;;;;;;;;;;11.70;94.70;;;;;;5071305;28;20391;-90
2022/10/29 06:59:27;;;;;;;;;;;11.70;94.50;;;;;;5072283;28;19917;-91
2022/10/29 07:01:53;;;;;;;;;;;11.80;94.20;;;;;;5056684;28;19974;-90
2022/10/29 07:04:19;;;;;;;;;;;11.80;94.70;;;;;;5068787;28;19920;-90
2022/10/29 07:06:45;;;;;;;;;;;11.80;94.30;;;;;;5053816;28;20038;-89
2022/10/29 07:09:10;;;;;;;;;;;11.80;94.60;;;;;;5083499;28;20168;-88
2022/10/29 07:11:36;;;;;;;;;;;11.80;94.50;;;;;;5084362;28;19943;-88
2022/10/29 07:14:04;;;;;;;;;;;11.80;94.60;;;;;;5080931;28;19920;-90
2022/10/29 07:16:30;;;;;;;;;;;11.80;94.70;;;;;;5067692;28;19924;-91
2022/10/29 07:18:56;;;;;;;;;;;11.80;94.80;;;;;;5073799;28;20310;-90
2022/10/29 07:21:22;;;;;;;;;;;11.90;94.90;;;;;;5088859;28;19917;-90
2022/10/29 07:23:47;;;;;;;;;;;11.90;94.80;;;;;;5054740;28;19917;-93
2022/10/29 07:26:13;;;;;;;;;;;12.00;94.70;;;;;;5073393;28;20014;-91
2022/10/29 07:28:38;;;;;;;;;;;12.10;94.30;;;;;;5086438;28;19920;-89
2022/10/29 07:31:04;;;;;;;;;;;12.20;94.50;;;;;;5076882;28;19917;-87
2022/10/29 07:33:29;;;;;;;;;;;12.30;94.00;;;;;;5054680;28;20299;-87
2022/10/29 07:35:56;;;;;;;;;;;12.40;93.80;;;;;;5072555;28;20039;-86
2022/10/29 07:38:22;;;;;;;;;;;12.50;93.20;;;;;;5069487;28;19912;-85
2022/10/29 07:40:48;;;;;;;;;;;12.60;93.00;;;;;;5071085;28;19963;-87
2022/10/29 07:43:14;;;;;;;;;;;12.80;92.70;;;;;;5065123;28;20006;-82
2022/10/29 07:45:41;;;;;;;;;;;12.80;92.30;;;;;;5093441;28;19928;-87
2022/10/29 07:48:08;;;;;;;;;;;13.00;91.90;;;;;;5082301;28;19928;-88
2022/10/29 07:50:33;;;;;;;;;;;13.10;91.90;;;;;;5083841;28;19916;-88
2022/10/29 07:52:59;;;;;;;;;;;13.10;91.70;;;;;;5099081;28;19919;-88
2022/10/29 07:55:26;;;;;;;;;;;13.30;91.60;;;;;;5086883;28;19916;-87
2022/10/29 07:58:00;;;;;;;;;;;13.40;90.60;;;;;;5075153;28;19916;-88
2022/10/29 08:00:26;;;;;;;;;;;13.50;90.60;;;;;;5048755;28;19912;-87
2022/10/29 08:02:52;;;;;;;;;;;13.70;90.20;;;;;;5071479;28;19909;-87
2022/10/29 08:05:18;;;;;;;;;;;13.80;88.80;;;;;;5078330;28;20330;-88
2022/10/29 08:07:43;;;;;;;;;;;13.70;88.80;;;;;;5080148;28;19930;-87
2022/10/29 08:10:09;;;;;;;;;;;13.90;88.30;;;;;;5059570;28;20019;-87
2022/10/29 08:12:34;;;;;;;;;;;13.90;87.30;;;;;;5060829;28;20345;-87
2022/10/29 08:15:00;;;;;;;;;;;14.00;88.00;;;;;;5059864;28;19959;-87
2022/10/29 08:17:28;;;;;;;;;;;14.00;86.80;;;;;;5066388;28;19931;-87
2022/10/29 08:19:53;;;;;;;;;;;14.10;86.10;;;;;;5066370;28;19927;-87
2022/10/29 08:22:19;;;;;;;;;;;14.20;86.60;;;;;;5088259;28;19916;-87
2022/10/29 08:24:44;;;;;;;;;;;14.20;84.90;;;;;;5076987;28;19913;-87
2022/10/29 08:27:10;;;;;;;;;;;14.40;83.70;;;;;;5066219;28;20375;-87
2022/10/29 08:29:35;;;;;;;;;;;14.50;84.00;;;;;;5072169;28;19925;-88
2022/10/29 08:32:01;;;;;;;;;;;14.60;84.00;;;;;;5072072;28;19978;-87
2022/10/29 08:34:26;;;;;;;;;;;14.80;83.20;;;;;;5071432;28;19939;-87
2022/10/29 08:36:52;;;;;;;;;;;14.90;82.80;;;;;;5080083;28;20291;-87
2022/10/29 08:39:17;;;;;;;;;;;15.00;81.90;;;;;;5080634;28;19983;-86
2022/10/29 08:41:54;;;;;;;;;;;15.10;83.50;;;;;;5071086;28;19923;-86
2022/10/29 08:44:32;;;;;;;;;;;15.20;81.80;;;;;;5080465;28;19928;-86
2022/10/29 08:47:08;;;;;;;;;;;15.30;79.60;;;;;;5067676;28;19917;-87
2022/10/29 08:49:37;;;;;;;;;;;15.50;78.60;;;;;;5080088;28;19912;-87
2022/10/29 08:52:08;;;;;;;;;;;15.60;79.70;;;;;;5081411;28;19991;-87
2022/10/29 08:54:35;;;;;;;;;;;15.70;77.70;;;;;;5062561;28;19917;-82
2022/10/29 08:57:05;;;;;;;;;;;15.80;76.70;;;;;;5077293;28;19920;-86
2022/10/29 08:59:34;;;;;;;;;;;15.90;76.30;;;;;;5093153;28;19924;-86
2022/10/29 09:01:59;;;;;;;;;;;16.00;76.00;;;;;;5063942;28;19953;-87
2022/10/29 09:04:26;;;;;;;;;;;16.10;75.40;;;;;;5056667;28;19929;-85
2022/10/29 09:06:59;;;;;;;;;;;16.10;74.50;;;;;;5091227;28;19921;-85
2022/10/29 09:09:42;;;;;;;;;;;16.30;76.20;;;;;;5085411;28;19912;-86
2022/10/29 09:12:29;;;;;;;;;;;16.30;74.40;;;;;;5074670;28;19923;-87
2022/10/29 09:15:21;;;;;;;;;;;16.50;74.50;;;;;;5073782;28;19982;-84
2022/10/29 09:18:00;;;;;;;;;;;16.60;73.40;;;;;;5080828;28;19916;-87
2022/10/29 09:20:28;;;;;;;;;;;16.70;73.80;;;;;;5077759;28;19912;-87
2022/10/29 09:22:59;;;;;;;;;;;16.90;73.10;;;;;;5078338;28;19916;-86
2022/10/29 09:25:39;;;;;;;;;;;17.00;74.00;;;;;;5065894;28;19924;-86
2022/10/29 09:28:13;;;;;;;;;;;17.20;72.80;;;;;;5075679;28;19923;-86
2022/10/29 09:31:02;;;;;;;;;;;17.20;70.00;;;;;;5067975;28;20355;-86
2022/10/29 09:33:28;;;;;;;;;;;17.30;70.00;;;;;;5056609;28;19913;-86
2022/10/29 09:35:54;;;;;;;;;;;17.40;69.80;;;;;;5081930;28;19920;-86
2022/10/29 09:38:25;;;;;;;;;;;17.40;69.30;;;;;;5066114;28;19916;-86
2022/10/29 09:40:51;;;;;;;;;;;17.40;66.60;;;;;;5075134;28;19923;-89
2022/10/29 09:43:29;;;;;;;;;;;17.50;67.70;;;;;;5077024;28;20010;-88
2022/10/29 09:46:13;;;;;;;;;;;17.50;67.50;;;;;;5080265;28;19920;-87
2022/10/29 09:48:51;;;;;;;;;;;17.50;65.30;;;;;;5087668;28;19970;-86
2022/10/29 09:51:29;;;;;;;;;;;17.60;66.40;;;;;;5072038;28;19952;-85
2022/10/29 09:53:54;;;;;;;;;;;17.60;66.30;;;;;;5078549;28;20475;-79
2022/10/29 09:56:20;;;;;;;;;;;17.60;66.60;;;;;;5072836;28;19921;-79
2022/10/29 09:58:52;;;;;;;;;;;17.70;65.80;;;;;;5070672;28;20436;-86
2022/10/29 10:01:17;;;;;;;;;;;17.70;66.90;;;;;;5072058;28;19920;-85
2022/10/29 10:03:46;;;;;;;;;;;17.80;67.70;;;;;;5054995;28;20387;-86
2022/10/29 10:06:12;;;;;;;;;;;17.90;65.40;;;;;;5075306;28;19924;-86
2022/10/29 10:08:56;;;;;;;;;;;17.90;65.40;;;;;;5061507;28;20003;-85
2022/10/29 10:11:22;;;;;;;;;;;18.00;64.40;;;;;;5071639;28;19913;-86
2022/10/29 10:13:52;;;;;;;;;;;18.10;65.30;;;;;;5068221;28;19913;-86
2022/10/29 10:16:28;;;;;;;;;;;18.20;64.70;;;;;;5080070;28;19920;-85
2022/10/29 10:18:54;;;;;;;;;;;18.30;64.60;;;;;;5071207;28;19916;-85
2022/10/29 10:21:26;;;;;;;;;;;18.30;63.80;;;;;;5085000;28;19934;-86
2022/10/29 10:23:52;;;;;;;;;;;18.40;64.30;;;;;;5064970;28;19920;-84
2022/10/29 10:26:33;;;;;;;;;;;18.50;64.70;;;;;;5057619;28;20265;-84
2022/10/29 10:29:02;;;;;;;;;;;18.70;63.10;;;;;;5095237;28;19959;-85
2022/10/29 10:31:28;;;;;;;;;;;18.80;64.20;;;;;;5089717;28;19916;-83
2022/10/29 10:33:54;;;;;;;;;;;18.80;62.80;;;;;;5080756;28;19941;-83
2022/10/29 10:36:21;;;;;;;;;;;18.70;64.50;;;;;;5073020;28;19919;-83
2022/10/29 10:38:57;;;;;;;;;;;18.90;62.40;;;;;;5080897;28;19921;-84
2022/10/29 10:41:24;;;;;;;;;;;19.00;62.90;;;;;;5071546;28;19943;-83
2022/10/29 10:43:50;;;;;;;;;;;19.20;63.30;;;;;;5073450;28;20411;-83
2022/10/29 10:46:22;;;;;;;;;;;19.30;60.80;;;;;;5077938;28;19963;-84
2022/10/29 10:49:01;;;;;;;;;;;19.30;60.90;;;;;;5072183;28;19951;-82
2022/10/29 10:51:29;;;;;;;;;;;19.40;59.20;;;;;;5068775;28;19921;-83
2022/10/29 10:53:54;;;;;;;;;;;19.40;60.60;;;;;;5078266;28;19917;-83
2022/10/29 10:56:21;;;;;;;;;;;19.50;61.80;;;;;;5072304;28;19919;-83
2022/10/29 10:59:00;;;;;;;;;;;19.50;61.20;;;;;;5063984;28;19920;-84
2022/10/29 11:01:26;;;;;;;;;;;19.60;60.90;;;;;;5076756;28;19925;-84
2022/10/29 11:03:57;;;;;;;;;;;19.70;61.60;;;;;;5070013;28;20452;-83
2022/10/29 11:06:43;;;;;;;;;;;19.80;61.90;;;;;;5066974;28;19917;-83
2022/10/29 11:09:09;;;;;;;;;;;19.90;61.90;;;;;;5059933;28;19932;-84
2022/10/29 11:12:04;;;;;;;;;;;19.90;61.70;;;;;;5068367;28;19920;-84
2022/10/29 11:14:33;;;;;;;;;;;20.00;60.80;;;;;;5073991;28;19917;-83
2022/10/29 11:17:03;;;;;;;;;;;20.10;58.30;;;;;;5073296;28;19923;-83
2022/10/29 11:19:28;;;;;;;;;;;20.20;59.60;;;;;;5075076;28;19920;-84
2022/10/29 11:21:54;;;;;;;;;;;20.30;59.30;;;;;;5078495;28;19912;-84
2022/10/29 11:24:24;;;;;;;;;;;20.30;58.70;;;;;;5063320;28;20011;-81
2022/10/29 11:26:53;;;;;;;;;;;20.50;57.40;;;;;;5065445;28;19920;-86
2022/10/29 11:29:45;;;;;;;;;;;20.50;59.30;;;;;;5085093;28;19952;-86
2022/10/29 11:32:19;;;;;;;;;;;20.50;57.50;;;;;;5045875;28;19920;-86
2022/10/29 11:34:44;;;;;;;;;;;20.60;58.20;;;;;;5081490;28;19917;-88
2022/10/29 11:37:29;;;;;;;;;;;20.70;57.00;;;;;;5089950;28;19944;-87
2022/10/29 11:39:56;;;;;;;;;;;20.80;55.80;;;;;;5078536;28;19924;-88
2022/10/29 11:42:22;;;;;;;;;;;20.80;57.00;;;;;;5072994;28;20376;-84
2022/10/29 11:44:48;;;;;;;;;;;20.80;57.20;;;;;;5051390;28;19936;-85
2022/10/29 11:47:15;;;;;;;;;;;20.80;55.10;;;;;;5053468;28;20321;-86
2022/10/29 11:49:41;;;;;;;;;;;20.90;57.00;;;;;;5044629;28;20292;-89
2022/10/29 11:52:08;;;;;;;;;;;20.90;54.10;;;;;;5041683;28;20376;-92
2022/10/29 11:55:09;;;;;;;;;;;20.90;56.50;;;;;;5050339;28;19913;-92
2022/10/29 11:57:53;;;;;;;;;;;21.00;56.50;;;;;;4965910;28;20026;-85
2022/10/29 12:00:19;;;;;;;;;;;21.10;56.90;;;;;;5034597;28;19917;-85
2022/10/29 12:02:48;;;;;;;;;;;21.20;55.80;;;;;;5032795;28;20062;-86
2022/10/29 12:05:32;;;;;;;;;;;21.40;55.70;;;;;;5037702;28;19912;-86
2022/10/29 12:08:03;;;;;;;;;;;21.40;54.00;;;;;;5037235;28;19994;-86
2022/10/29 12:10:34;;;;;;;;;;;21.40;54.40;;;;;;5036133;28;19924;-86
2022/10/29 12:13:07;;;;;;;;;;;21.50;54.00;;;;;;5041013;28;20034;-86
2022/10/29 12:15:48;;;;;;;;;;;21.50;51.50;;;;;;5039389;28;20335;-86
2022/10/29 12:18:34;;;;;;;;;;;21.40;52.90;;;;;;5033851;28;20276;-86
2022/10/29 12:21:08;;;;;;;;;;;21.50;52.10;;;;;;5040616;28;20563;-85
2022/10/29 12:23:51;;;;;;;;;;;21.60;51.20;;;;;;5035418;28;19920;-86
2022/10/29 12:26:22;;;;;;;;;;;21.60;50.10;;;;;;5030452;28;20346;-86
2022/10/29 12:28:53;;;;;;;;;;;21.80;52.40;;;;;;5039887;28;19920;-86
2022/10/29 12:31:19;;;;;;;;;;;21.90;49.70;;;;;;5044963;28;20368;-87
2022/10/29 12:33:58;;;;;;;;;;;21.80;49.40;;;;;;5054397;28;19924;-86
2022/10/29 12:36:31;;;;;;;;;;;21.80;48.70;;;;;;5056904;28;19917;-85
2022/10/29 12:38:57;;;;;;;;;;;21.70;50.70;;;;;;5043167;28;20007;-86
2022/10/29 12:41:25;;;;;;;;;;;21.80;49.60;;;;;;5055846;28;20092;-86
2022/10/29 12:43:52;;;;;;;;;;;21.80;51.60;;;;;;5064825;28;19967;-86
2022/10/29 12:46:21;;;;;;;;;;;21.90;51.00;;;;;;5095717;28;19912;-86
2022/10/29 12:48:58;;;;;;;;;;;22.00;52.30;;;;;;5072626;28;19985;-86
2022/10/29 12:51:27;;;;;;;;;;;22.00;52.30;;;;;;5078136;28;19912;-86
2022/10/29 12:54:13;;;;;;;;;;;22.10;52.30;;;;;;5087730;28;19917;-86
2022/10/29 12:56:38;;;;;;;;;;;22.20;50.40;;;;;;5069815;28;20382;-86
2022/10/29 12:59:22;;;;;;;;;;;22.40;50.20;;;;;;5094012;28;19927;-86
2022/10/29 13:01:48;;;;;;;;;;;22.30;50.10;;;;;;5077873;28;19920;-86
2022/10/29 13:04:40;;;;;;;;;;;22.40;49.30;;;;;;5088669;28;19927;-86
2022/10/29 13:07:18;;;;;;;;;;;22.50;51.20;;;;;;5094624;28;19920;-86
2022/10/29 13:09:44;;;;;;;;;;;22.50;49.80;;;;;;5071827;28;20363;-86
2022/10/29 13:12:10;;;;;;;;;;;22.50;51.40;;;;;;5060849;28;20014;-86
2022/10/29 13:14:39;;;;;;;;;;;22.60;51.30;;;;;;5062765;28;20015;-86
2022/10/29 13:17:16;;;;;;;;;;;22.70;52.70;;;;;;5074765;28;19924;-86
2022/10/29 13:19:45;;;;;;;;;;;22.80;50.30;;;;;;5096339;28;20084;-86
2022/10/29 13:22:13;;;;;;;;;;;22.60;49.90;;;;;;5088849;28;19916;-87
2022/10/29 13:24:39;;;;;;;;;;;22.70;50.90;;;;;;5076596;28;19912;-87
2022/10/29 13:27:24;;;;;;;;;;;22.80;51.20;;;;;;5077098;28;20351;-87
2022/10/29 13:30:09;;;;;;;;;;;22.80;52.10;;;;;;5093939;28;19912;-86
2022/10/29 13:32:36;;;;;;;;;;;22.80;50.70;;;;;;5074508;28;19955;-87
2022/10/29 13:35:03;;;;;;;;;;;22.70;50.60;;;;;;5104814;28;20432;-87
2022/10/29 13:37:36;;;;;;;;;;;22.60;50.60;;;;;;5088047;28;20393;-88
2022/10/29 13:40:22;;;;;;;;;;;22.90;50.70;;;;;;5068573;28;19936;-86
2022/10/29 13:42:53;;;;;;;;;;;22.90;50.10;;;;;;5060155;28;19965;-86
2022/10/29 13:45:19;;;;;;;;;;;22.90;50.20;;;;;;5081421;28;20436;-87
2022/10/29 13:47:45;;;;;;;;;;;22.90;50.90;;;;;;5078419;28;19928;-86
2022/10/29 13:50:14;;;;;;;;;;;22.90;50.20;;;;;;5076205;28;19998;-86
2022/10/29 13:52:39;;;;;;;;;;;23.00;50.10;;;;;;5084861;28;19912;-87
2022/10/29 13:55:06;;;;;;;;;;;23.10;50.00;;;;;;5103179;28;20550;-86
2022/10/29 13:57:50;;;;;;;;;;;23.30;49.40;;;;;;5101881;28;19916;-87
2022/10/29 14:00:18;;;;;;;;;;;23.60;48.90;;;;;;5102059;28;19934;-86
2022/10/29 14:02:49;;;;;;;;;;;23.80;49.00;;;;;;5074606;28;19909;-86
2022/10/29 14:05:14;;;;;;;;;;;23.80;50.10;;;;;;5065312;28;20338;-86
2022/10/29 14:07:51;;;;;;;;;;;23.60;48.60;;;;;;5070306;28;19920;-86
2022/10/29 14:10:20;;;;;;;;;;;23.70;49.00;;;;;;5079350;28;20713;-86
2022/10/29 14:12:47;;;;;;;;;;;23.70;48.40;;;;;;5098591;28;19973;-86
2022/10/29 14:15:13;;;;;;;;;;;23.80;49.60;;;;;;5100410;28;20286;-86
2022/10/29 14:17:39;;;;;;;;;;;23.60;50.50;;;;;;5075331;28;19931;-86
2022/10/29 14:20:17;;;;;;;;;;;23.40;50.00;;;;;;5083002;28;19920;-86
2022/10/29 14:22:44;;;;;;;;;;;23.30;50.50;;;;;;5080486;28;19996;-86
2022/10/29 14:25:25;;;;;;;;;;;23.30;51.20;;;;;;5068342;28;19916;-87
2022/10/29 14:28:09;;;;;;;;;;;23.20;50.60;;;;;;5072289;28;19923;-86